Terminal Aerodrome Forecast
Issued by NWS

Home | Current Version | Previous Version | Text Only | Print | Product List | Glossary On
Versions: 1 2 3 4 5 6 7 8 9 10 11 12 13 14 15 16 17 18 19 20 21
000
FTUS41 KGYX 272327
TAFAUG
TAF
KAUG 272327Z 2800/2824 01020G32KT 1 1/2SM -SN BLSN OVC012
      TEMPO 2800/2804 1/2SM SN BLSN VV007
     FM281000 34017G26KT 3SM -SN BLSN BR BKN015 OVC025
     FM281500 33016G24KT P6SM -SHSN BKN025 OVC040
     FM281800 33014G20KT P6SM BKN040 BKN080=

USA.gov is the U.S. government's official web portal to all federal, state and local government web resources and services.